sensor_id;sensor_type;location;lat;lon;timestamp;P1;durP1;ratioP1;P2;durP2;ratioP2
19024;SDS011;9645;51.448;6.260;2023-06-22T00:01:24;16.83;;;10.43;;
19024;SDS011;9645;51.448;6.260;2023-06-22T00:03:51;17.03;;;10.77;;
19024;SDS011;9645;51.448;6.260;2023-06-22T00:06:18;25.23;;;9.97;;
19024;SDS011;9645;51.448;6.260;2023-06-22T00:08:46;18.80;;;10.83;;
19024;SDS011;9645;51.448;6.260;2023-06-22T00:11:14;16.90;;;11.20;;
19024;SDS011;9645;51.448;6.260;2023-06-22T00:13:42;20.40;;;11.53;;
19024;SDS011;9645;51.448;6.260;2023-06-22T00:16:09;24.60;;;12.70;;
19024;SDS011;9645;51.448;6.260;2023-06-22T00:18:36;23.50;;;11.13;;
19024;SDS011;9645;51.448;6.260;2023-06-22T00:21:03;23.03;;;11.47;;
19024;SDS011;9645;51.448;6.260;2023-06-22T00:23:31;21.50;;;11.70;;
19024;SDS011;9645;51.448;6.260;2023-06-22T00:25:59;21.27;;;12.20;;
19024;SDS011;9645;51.448;6.260;2023-06-22T00:28:26;20.73;;;11.97;;
19024;SDS011;9645;51.448;6.260;2023-06-22T00:30:55;20.70;;;13.67;;
19024;SDS011;9645;51.448;6.260;2023-06-22T00:33:22;22.20;;;13.00;;
19024;SDS011;9645;51.448;6.260;2023-06-22T00:35:49;24.43;;;13.97;;
19024;SDS011;9645;51.448;6.260;2023-06-22T00:38:17;24.70;;;15.20;;
19024;SDS011;9645;51.448;6.260;2023-06-22T00:40:45;24.20;;;12.90;;
19024;SDS011;9645;51.448;6.260;2023-06-22T00:43:12;21.17;;;13.67;;
19024;SDS011;9645;51.448;6.260;2023-06-22T00:45:39;26.70;;;13.80;;
19024;SDS011;9645;51.448;6.260;2023-06-22T00:48:07;24.80;;;13.17;;
19024;SDS011;9645;51.448;6.260;2023-06-22T00:50:35;30.53;;;14.87;;
19024;SDS011;9645;51.448;6.260;2023-06-22T00:53:03;24.37;;;14.20;;
19024;SDS011;9645;51.448;6.260;2023-06-22T00:55:33;25.50;;;14.10;;
19024;SDS011;9645;51.448;6.260;2023-06-22T00:58:02;21.90;;;13.40;;
19024;SDS011;9645;51.448;6.260;2023-06-22T01:00:33;25.50;;;15.93;;
19024;SDS011;9645;51.448;6.260;2023-06-22T01:03:01;25.33;;;15.77;;
19024;SDS011;9645;51.448;6.260;2023-06-22T01:05:29;37.23;;;14.50;;
19024;SDS011;9645;51.448;6.260;2023-06-22T01:08:04;27.20;;;15.17;;
19024;SDS011;9645;51.448;6.260;2023-06-22T01:10:40;28.37;;;13.87;;
19024;SDS011;9645;51.448;6.260;2023-06-22T01:13:13;24.97;;;13.97;;
19024;SDS011;9645;51.448;6.260;2023-06-22T01:15:46;26.53;;;14.60;;
19024;SDS011;9645;51.448;6.260;2023-06-22T01:18:19;30.33;;;15.10;;
19024;SDS011;9645;51.448;6.260;2023-06-22T01:20:52;22.60;;;13.57;;
19024;SDS011;9645;51.448;6.260;2023-06-22T01:23:22;26.40;;;13.90;;
19024;SDS011;9645;51.448;6.260;2023-06-22T01:25:57;25.97;;;15.07;;
19024;SDS011;9645;51.448;6.260;2023-06-22T01:28:39;24.87;;;14.20;;
19024;SDS011;9645;51.448;6.260;2023-06-22T01:31:09;30.60;;;16.50;;
19024;SDS011;9645;51.448;6.260;2023-06-22T01:33:41;21.77;;;14.07;;
19024;SDS011;9645;51.448;6.260;2023-06-22T01:36:10;25.20;;;15.10;;
19024;SDS011;9645;51.448;6.260;2023-06-22T01:38:37;28.00;;;14.90;;
19024;SDS011;9645;51.448;6.260;2023-06-22T01:41:05;26.90;;;15.23;;
19024;SDS011;9645;51.448;6.260;2023-06-22T01:43:32;26.30;;;14.03;;
19024;SDS011;9645;51.448;6.260;2023-06-22T01:46:02;22.63;;;13.80;;
19024;SDS011;9645;51.448;6.260;2023-06-22T01:48:29;20.77;;;13.57;;
19024;SDS011;9645;51.448;6.260;2023-06-22T01:50:57;21.90;;;14.07;;
19024;SDS011;9645;51.448;6.260;2023-06-22T01:53:24;27.23;;;15.53;;
19024;SDS011;9645;51.448;6.260;2023-06-22T01:55:52;28.03;;;15.10;;
19024;SDS011;9645;51.448;6.260;2023-06-22T01:58:19;31.13;;;14.67;;
19024;SDS011;9645;51.448;6.260;2023-06-22T02:00:48;28.10;;;15.63;;
19024;SDS011;9645;51.448;6.260;2023-06-22T02:03:21;25.77;;;14.90;;
19024;SDS011;9645;51.448;6.260;2023-06-22T02:06:03;33.60;;;16.60;;
19024;SDS011;9645;51.448;6.260;2023-06-22T02:08:35;24.07;;;13.40;;
19024;SDS011;9645;51.448;6.260;2023-06-22T02:11:06;25.73;;;14.83;;
19024;SDS011;9645;51.448;6.260;2023-06-22T02:13:35;23.73;;;14.43;;
19024;SDS011;9645;51.448;6.260;2023-06-22T02:16:03;34.20;;;15.40;;
19024;SDS011;9645;51.448;6.260;2023-06-22T02:18:32;25.73;;;15.50;;
19024;SDS011;9645;51.448;6.260;2023-06-22T02:21:00;26.73;;;16.03;;
19024;SDS011;9645;51.448;6.260;2023-06-22T02:23:27;23.20;;;14.80;;
19024;SDS011;9645;51.448;6.260;2023-06-22T02:25:55;25.87;;;15.63;;
19024;SDS011;9645;51.448;6.260;2023-06-22T02:28:22;24.13;;;15.07;;
19024;SDS011;9645;51.448;6.260;2023-06-22T02:30:49;30.07;;;15.30;;
19024;SDS011;9645;51.448;6.260;2023-06-22T02:33:16;30.10;;;16.77;;
19024;SDS011;9645;51.448;6.260;2023-06-22T02:35:44;20.60;;;13.70;;
19024;SDS011;9645;51.448;6.260;2023-06-22T02:38:14;31.43;;;15.63;;
19024;SDS011;9645;51.448;6.260;2023-06-22T02:40:42;26.27;;;14.00;;
19024;SDS011;9645;51.448;6.260;2023-06-22T02:43:09;24.10;;;15.33;;
19024;SDS011;9645;51.448;6.260;2023-06-22T02:45:37;29.87;;;16.03;;
19024;SDS011;9645;51.448;6.260;2023-06-22T02:48:04;25.33;;;14.57;;
19024;SDS011;9645;51.448;6.260;2023-06-22T02:50:31;26.63;;;15.03;;
19024;SDS011;9645;51.448;6.260;2023-06-22T02:53:00;33.10;;;16.63;;
19024;SDS011;9645;51.448;6.260;2023-06-22T02:55:27;24.50;;;15.23;;
19024;SDS011;9645;51.448;6.260;2023-06-22T02:57:54;24.17;;;14.80;;
19024;SDS011;9645;51.448;6.260;2023-06-22T03:00:22;30.03;;;15.43;;
19024;SDS011;9645;51.448;6.260;2023-06-22T03:02:55;23.87;;;15.07;;
19024;SDS011;9645;51.448;6.260;2023-06-22T03:05:23;24.87;;;15.50;;
19024;SDS011;9645;51.448;6.260;2023-06-22T03:07:51;29.33;;;16.13;;
19024;SDS011;9645;51.448;6.260;2023-06-22T03:10:19;24.43;;;15.50;;
19024;SDS011;9645;51.448;6.260;2023-06-22T03:12:46;21.90;;;14.97;;
19024;SDS011;9645;51.448;6.260;2023-06-22T03:15:14;23.87;;;15.47;;
19024;SDS011;9645;51.448;6.260;2023-06-22T03:17:42;26.80;;;17.03;;
19024;SDS011;9645;51.448;6.260;2023-06-22T03:20:09;29.53;;;15.13;;
19024;SDS011;9645;51.448;6.260;2023-06-22T03:22:37;25.20;;;15.87;;
19024;SDS011;9645;51.448;6.260;2023-06-22T03:25:05;25.53;;;15.43;;
19024;SDS011;9645;51.448;6.260;2023-06-22T03:27:39;30.90;;;16.77;;
19024;SDS011;9645;51.448;6.260;2023-06-22T03:30:07;25.17;;;13.87;;
19024;SDS011;9645;51.448;6.260;2023-06-22T03:32:35;35.27;;;17.43;;
19024;SDS011;9645;51.448;6.260;2023-06-22T03:35:02;28.90;;;16.57;;
19024;SDS011;9645;51.448;6.260;2023-06-22T03:37:31;28.30;;;17.67;;
19024;SDS011;9645;51.448;6.260;2023-06-22T03:39:58;33.67;;;16.57;;
19024;SDS011;9645;51.448;6.260;2023-06-22T03:42:25;30.47;;;15.67;;
19024;SDS011;9645;51.448;6.260;2023-06-22T03:44:54;27.93;;;16.27;;
19024;SDS011;9645;51.448;6.260;2023-06-22T03:47:21;29.83;;;17.63;;
19024;SDS011;9645;51.448;6.260;2023-06-22T03:49:48;28.50;;;16.80;;
19024;SDS011;9645;51.448;6.260;2023-06-22T03:52:15;30.30;;;17.20;;
19024;SDS011;9645;51.448;6.260;2023-06-22T03:54:42;28.63;;;16.57;;
19024;SDS011;9645;51.448;6.260;2023-06-22T03:57:09;28.07;;;16.00;;
19024;SDS011;9645;51.448;6.260;2023-06-22T03:59:36;26.10;;;14.03;;
19024;SDS011;9645;51.448;6.260;2023-06-22T04:02:05;29.73;;;15.40;;
19024;SDS011;9645;51.448;6.260;2023-06-22T04:04:32;28.13;;;15.77;;
19024;SDS011;9645;51.448;6.260;2023-06-22T04:07:00;26.87;;;14.10;;
19024;SDS011;9645;51.448;6.260;2023-06-22T04:09:27;31.33;;;18.33;;
19024;SDS011;9645;51.448;6.260;2023-06-22T04:11:54;28.00;;;18.63;;
19024;SDS011;9645;51.448;6.260;2023-06-22T04:14:21;25.17;;;15.83;;
19024;SDS011;9645;51.448;6.260;2023-06-22T04:16:48;26.53;;;15.43;;
19024;SDS011;9645;51.448;6.260;2023-06-22T04:19:16;26.70;;;15.43;;
19024;SDS011;9645;51.448;6.260;2023-06-22T04:21:43;30.97;;;16.70;;
19024;SDS011;9645;51.448;6.260;2023-06-22T04:24:13;29.20;;;17.37;;
19024;SDS011;9645;51.448;6.260;2023-06-22T04:26:40;32.07;;;16.90;;
19024;SDS011;9645;51.448;6.260;2023-06-22T04:29:10;26.73;;;17.00;;
19024;SDS011;9645;51.448;6.260;2023-06-22T04:31:37;30.03;;;18.33;;
19024;SDS011;9645;51.448;6.260;2023-06-22T04:34:05;29.47;;;17.40;;
19024;SDS011;9645;51.448;6.260;2023-06-22T04:36:37;27.40;;;17.57;;
19024;SDS011;9645;51.448;6.260;2023-06-22T04:39:05;33.80;;;18.30;;
19024;SDS011;9645;51.448;6.260;2023-06-22T04:41:34;50.13;;;18.53;;
19024;SDS011;9645;51.448;6.260;2023-06-22T04:44:11;26.13;;;16.47;;
19024;SDS011;9645;51.448;6.260;2023-06-22T04:46:38;27.87;;;17.47;;
19024;SDS011;9645;51.448;6.260;2023-06-22T04:49:06;28.90;;;17.47;;
19024;SDS011;9645;51.448;6.260;2023-06-22T04:51:38;28.87;;;17.20;;
19024;SDS011;9645;51.448;6.260;2023-06-22T04:54:09;28.00;;;17.87;;
19024;SDS011;9645;51.448;6.260;2023-06-22T04:56:36;28.13;;;17.37;;
19024;SDS011;9645;51.448;6.260;2023-06-22T04:59:06;33.23;;;18.60;;
19024;SDS011;9645;51.448;6.260;2023-06-22T05:01:38;28.00;;;17.43;;
19024;SDS011;9645;51.448;6.260;2023-06-22T05:04:05;33.50;;;19.17;;
19024;SDS011;9645;51.448;6.260;2023-06-22T05:06:32;31.90;;;18.33;;
19024;SDS011;9645;51.448;6.260;2023-06-22T05:09:01;29.20;;;17.53;;
19024;SDS011;9645;51.448;6.260;2023-06-22T05:11:30;31.50;;;17.80;;
19024;SDS011;9645;51.448;6.260;2023-06-22T05:13:57;30.50;;;16.73;;
19024;SDS011;9645;51.448;6.260;2023-06-22T05:16:24;31.30;;;18.60;;
19024;SDS011;9645;51.448;6.260;2023-06-22T05:18:52;29.63;;;17.77;;
19024;SDS011;9645;51.448;6.260;2023-06-22T05:21:23;35.97;;;18.83;;
19024;SDS011;9645;51.448;6.260;2023-06-22T05:23:51;28.43;;;18.67;;
19024;SDS011;9645;51.448;6.260;2023-06-22T05:26:20;35.03;;;18.97;;
19024;SDS011;9645;51.448;6.260;2023-06-22T05:28:47;31.80;;;17.70;;
19024;SDS011;9645;51.448;6.260;2023-06-22T05:31:14;33.90;;;18.40;;
19024;SDS011;9645;51.448;6.260;2023-06-22T05:33:45;34.27;;;18.43;;
19024;SDS011;9645;51.448;6.260;2023-06-22T05:36:13;29.07;;;17.30;;
19024;SDS011;9645;51.448;6.260;2023-06-22T05:38:40;41.50;;;20.30;;
19024;SDS011;9645;51.448;6.260;2023-06-22T05:41:08;33.80;;;19.63;;
19024;SDS011;9645;51.448;6.260;2023-06-22T05:43:36;36.13;;;19.30;;
19024;SDS011;9645;51.448;6.260;2023-06-22T05:46:04;36.00;;;20.37;;
19024;SDS011;9645;51.448;6.260;2023-06-22T05:48:31;40.27;;;18.50;;
19024;SDS011;9645;51.448;6.260;2023-06-22T05:50:58;34.17;;;18.87;;
19024;SDS011;9645;51.448;6.260;2023-06-22T05:53:25;32.53;;;18.60;;
19024;SDS011;9645;51.448;6.260;2023-06-22T05:55:52;26.00;;;14.87;;
19024;SDS011;9645;51.448;6.260;2023-06-22T05:58:19;36.77;;;21.63;;
19024;SDS011;9645;51.448;6.260;2023-06-22T06:00:48;32.97;;;19.90;;
19024;SDS011;9645;51.448;6.260;2023-06-22T06:03:15;38.10;;;21.40;;
19024;SDS011;9645;51.448;6.260;2023-06-22T06:05:43;35.83;;;19.13;;
19024;SDS011;9645;51.448;6.260;2023-06-22T06:08:10;36.90;;;19.63;;
19024;SDS011;9645;51.448;6.260;2023-06-22T06:10:37;31.20;;;17.77;;
19024;SDS011;9645;51.448;6.260;2023-06-22T06:13:05;33.33;;;18.10;;
19024;SDS011;9645;51.448;6.260;2023-06-22T06:15:32;35.23;;;19.47;;
19024;SDS011;9645;51.448;6.260;2023-06-22T06:18:02;29.57;;;19.20;;
19024;SDS011;9645;51.448;6.260;2023-06-22T06:20:30;30.97;;;18.40;;
19024;SDS011;9645;51.448;6.260;2023-06-22T06:22:58;36.70;;;20.50;;
19024;SDS011;9645;51.448;6.260;2023-06-22T06:25:25;32.67;;;20.20;;
19024;SDS011;9645;51.448;6.260;2023-06-22T06:27:53;39.00;;;19.83;;
19024;SDS011;9645;51.448;6.260;2023-06-22T06:30:20;42.90;;;20.10;;
19024;SDS011;9645;51.448;6.260;2023-06-22T06:32:49;37.20;;;19.13;;
19024;SDS011;9645;51.448;6.260;2023-06-22T06:35:18;34.30;;;18.87;;
19024;SDS011;9645;51.448;6.260;2023-06-22T06:37:47;31.53;;;20.37;;
19024;SDS011;9645;51.448;6.260;2023-06-22T06:40:15;34.17;;;18.70;;
19024;SDS011;9645;51.448;6.260;2023-06-22T06:42:44;32.20;;;19.73;;
19024;SDS011;9645;51.448;6.260;2023-06-22T06:45:12;32.20;;;18.83;;
19024;SDS011;9645;51.448;6.260;2023-06-22T06:47:42;37.00;;;20.17;;
19024;SDS011;9645;51.448;6.260;2023-06-22T06:50:09;34.17;;;19.10;;
19024;SDS011;9645;51.448;6.260;2023-06-22T06:52:38;29.03;;;18.37;;
19024;SDS011;9645;51.448;6.260;2023-06-22T06:55:05;34.23;;;18.37;;
19024;SDS011;9645;51.448;6.260;2023-06-22T06:57:36;34.87;;;20.80;;
19024;SDS011;9645;51.448;6.260;2023-06-22T07:00:04;42.20;;;19.70;;
19024;SDS011;9645;51.448;6.260;2023-06-22T07:02:37;32.30;;;19.97;;
19024;SDS011;9645;51.448;6.260;2023-06-22T07:05:04;34.73;;;19.80;;
19024;SDS011;9645;51.448;6.260;2023-06-22T07:07:31;34.13;;;20.43;;
19024;SDS011;9645;51.448;6.260;2023-06-22T07:10:00;43.57;;;21.00;;
19024;SDS011;9645;51.448;6.260;2023-06-22T07:12:28;35.03;;;21.23;;
19024;SDS011;9645;51.448;6.260;2023-06-22T07:14:57;47.93;;;21.60;;
19024;SDS011;9645;51.448;6.260;2023-06-22T07:17:28;38.03;;;21.93;;
19024;SDS011;9645;51.448;6.260;2023-06-22T07:19:55;35.40;;;20.07;;
19024;SDS011;9645;51.448;6.260;2023-06-22T07:22:22;34.50;;;19.03;;
19024;SDS011;9645;51.448;6.260;2023-06-22T07:24:49;44.93;;;19.00;;
19024;SDS011;9645;51.448;6.260;2023-06-22T07:27:18;32.43;;;19.50;;
19024;SDS011;9645;51.448;6.260;2023-06-22T07:29:46;31.07;;;18.50;;
19024;SDS011;9645;51.448;6.260;2023-06-22T07:32:13;32.30;;;19.53;;
19024;SDS011;9645;51.448;6.260;2023-06-22T07:34:40;29.10;;;18.20;;
19024;SDS011;9645;51.448;6.260;2023-06-22T07:37:08;34.73;;;20.33;;
19024;SDS011;9645;51.448;6.260;2023-06-22T07:39:35;29.63;;;18.33;;
19024;SDS011;9645;51.448;6.260;2023-06-22T07:42:03;43.20;;;18.80;;
19024;SDS011;9645;51.448;6.260;2023-06-22T07:44:32;30.47;;;20.07;;
19024;SDS011;9645;51.448;6.260;2023-06-22T07:46:59;37.80;;;20.60;;
19024;SDS011;9645;51.448;6.260;2023-06-22T07:49:27;39.63;;;20.63;;
19024;SDS011;9645;51.448;6.260;2023-06-22T07:51:55;31.03;;;18.87;;
19024;SDS011;9645;51.448;6.260;2023-06-22T07:54:22;41.43;;;21.30;;
19024;SDS011;9645;51.448;6.260;2023-06-22T07:56:49;29.53;;;18.90;;
19024;SDS011;9645;51.448;6.260;2023-06-22T07:59:16;32.90;;;19.47;;
19024;SDS011;9645;51.448;6.260;2023-06-22T08:01:45;31.30;;;18.83;;
19024;SDS011;9645;51.448;6.260;2023-06-22T08:04:14;33.10;;;19.37;;
19024;SDS011;9645;51.448;6.260;2023-06-22T08:06:41;29.90;;;18.07;;
19024;SDS011;9645;51.448;6.260;2023-06-22T08:09:09;36.23;;;19.40;;
19024;SDS011;9645;51.448;6.260;2023-06-22T08:11:36;35.40;;;19.70;;
19024;SDS011;9645;51.448;6.260;2023-06-22T08:14:03;33.83;;;18.53;;
19024;SDS011;9645;51.448;6.260;2023-06-22T08:16:30;27.97;;;17.70;;
19024;SDS011;9645;51.448;6.260;2023-06-22T08:18:59;33.80;;;20.07;;
19024;SDS011;9645;51.448;6.260;2023-06-22T08:21:27;32.93;;;19.47;;
19024;SDS011;9645;51.448;6.260;2023-06-22T08:23:55;29.00;;;18.87;;
19024;SDS011;9645;51.448;6.260;2023-06-22T08:26:22;29.93;;;17.43;;
19024;SDS011;9645;51.448;6.260;2023-06-22T08:28:50;35.63;;;19.83;;
19024;SDS011;9645;51.448;6.260;2023-06-22T08:31:18;34.13;;;18.13;;
19024;SDS011;9645;51.448;6.260;2023-06-22T08:33:45;33.80;;;19.20;;
19024;SDS011;9645;51.448;6.260;2023-06-22T08:36:14;29.80;;;19.00;;
19024;SDS011;9645;51.448;6.260;2023-06-22T08:38:41;30.13;;;17.77;;
19024;SDS011;9645;51.448;6.260;2023-06-22T08:41:08;30.33;;;17.97;;
19024;SDS011;9645;51.448;6.260;2023-06-22T08:43:35;31.33;;;18.77;;
19024;SDS011;9645;51.448;6.260;2023-06-22T08:46:02;26.53;;;18.43;;
19024;SDS011;9645;51.448;6.260;2023-06-22T08:48:29;32.40;;;19.83;;
19024;SDS011;9645;51.448;6.260;2023-06-22T08:50:56;31.63;;;19.33;;
19024;SDS011;9645;51.448;6.260;2023-06-22T08:53:25;37.10;;;19.17;;
19024;SDS011;9645;51.448;6.260;2023-06-22T08:55:52;30.33;;;17.53;;
19024;SDS011;9645;51.448;6.260;2023-06-22T08:58:19;35.37;;;18.37;;
19024;SDS011;9645;51.448;6.260;2023-06-22T09:00:46;38.23;;;20.23;;
19024;SDS011;9645;51.448;6.260;2023-06-22T09:03:13;31.00;;;19.23;;
19024;SDS011;9645;51.448;6.260;2023-06-22T09:05:40;33.37;;;18.67;;
19024;SDS011;9645;51.448;6.260;2023-06-22T09:08:07;30.40;;;19.40;;
19024;SDS011;9645;51.448;6.260;2023-06-22T09:10:39;33.80;;;19.70;;
19024;SDS011;9645;51.448;6.260;2023-06-22T09:13:08;35.73;;;19.87;;
19024;SDS011;9645;51.448;6.260;2023-06-22T09:15:36;29.50;;;19.67;;
19024;SDS011;9645;51.448;6.260;2023-06-22T09:18:04;34.27;;;20.10;;
19024;SDS011;9645;51.448;6.260;2023-06-22T09:20:31;29.07;;;18.43;;
19024;SDS011;9645;51.448;6.260;2023-06-22T09:23:02;30.10;;;19.37;;
19024;SDS011;9645;51.448;6.260;2023-06-22T09:25:30;32.87;;;18.30;;
19024;SDS011;9645;51.448;6.260;2023-06-22T09:28:00;30.10;;;18.77;;
19024;SDS011;9645;51.448;6.260;2023-06-22T09:30:28;27.77;;;17.07;;
19024;SDS011;9645;51.448;6.260;2023-06-22T09:32:57;35.00;;;18.60;;
19024;SDS011;9645;51.448;6.260;2023-06-22T09:35:26;30.50;;;18.63;;
19024;SDS011;9645;51.448;6.260;2023-06-22T09:37:54;40.43;;;18.60;;
19024;SDS011;9645;51.448;6.260;2023-06-22T09:40:24;25.90;;;17.63;;
19024;SDS011;9645;51.448;6.260;2023-06-22T09:42:55;32.80;;;19.40;;
19024;SDS011;9645;51.448;6.260;2023-06-22T09:45:30;31.20;;;19.03;;
19024;SDS011;9645;51.448;6.260;2023-06-22T09:48:00;30.03;;;19.70;;
19024;SDS011;9645;51.448;6.260;2023-06-22T09:50:28;30.83;;;18.30;;
19024;SDS011;9645;51.448;6.260;2023-06-22T09:52:56;26.10;;;17.70;;
19024;SDS011;9645;51.448;6.260;2023-06-22T09:55:24;37.00;;;19.63;;
19024;SDS011;9645;51.448;6.260;2023-06-22T09:57:52;36.47;;;20.10;;
19024;SDS011;9645;51.448;6.260;2023-06-22T10:00:23;25.93;;;17.40;;
19024;SDS011;9645;51.448;6.260;2023-06-22T10:02:54;28.97;;;19.10;;
19024;SDS011;9645;51.448;6.260;2023-06-22T10:05:24;29.30;;;19.53;;
19024;SDS011;9645;51.448;6.260;2023-06-22T10:07:51;34.00;;;19.07;;
19024;SDS011;9645;51.448;6.260;2023-06-22T10:10:19;34.33;;;21.23;;
19024;SDS011;9645;51.448;6.260;2023-06-22T10:12:54;32.27;;;20.57;;
19024;SDS011;9645;51.448;6.260;2023-06-22T10:15:23;30.50;;;18.27;;
19024;SDS011;9645;51.448;6.260;2023-06-22T10:17:53;32.13;;;20.57;;
19024;SDS011;9645;51.448;6.260;2023-06-22T10:20:21;31.57;;;19.43;;
19024;SDS011;9645;51.448;6.260;2023-06-22T10:22:49;38.27;;;20.13;;
19024;SDS011;9645;51.448;6.260;2023-06-22T10:25:16;29.80;;;18.93;;
19024;SDS011;9645;51.448;6.260;2023-06-22T10:27:45;32.70;;;19.93;;
19024;SDS011;9645;51.448;6.260;2023-06-22T10:30:13;31.10;;;19.00;;
19024;SDS011;9645;51.448;6.260;2023-06-22T10:32:42;28.13;;;17.33;;
19024;SDS011;9645;51.448;6.260;2023-06-22T10:35:16;31.70;;;19.67;;
19024;SDS011;9645;51.448;6.260;2023-06-22T10:37:44;29.60;;;18.47;;
19024;SDS011;9645;51.448;6.260;2023-06-22T10:40:14;29.97;;;17.63;;
19024;SDS011;9645;51.448;6.260;2023-06-22T10:42:44;37.00;;;20.10;;
19024;SDS011;9645;51.448;6.260;2023-06-22T10:45:12;27.73;;;17.83;;
19024;SDS011;9645;51.448;6.260;2023-06-22T10:47:40;33.33;;;18.50;;
19024;SDS011;9645;51.448;6.260;2023-06-22T10:50:08;29.13;;;19.60;;
19024;SDS011;9645;51.448;6.260;2023-06-22T10:52:38;34.43;;;21.43;;
19024;SDS011;9645;51.448;6.260;2023-06-22T10:55:07;30.17;;;19.30;;
19024;SDS011;9645;51.448;6.260;2023-06-22T10:57:35;32.97;;;19.80;;
19024;SDS011;9645;51.448;6.260;2023-06-22T11:00:04;28.47;;;17.40;;
19024;SDS011;9645;51.448;6.260;2023-06-22T11:02:33;32.30;;;19.20;;
19024;SDS011;9645;51.448;6.260;2023-06-22T11:05:01;29.60;;;18.47;;
19024;SDS011;9645;51.448;6.260;2023-06-22T11:07:29;31.17;;;18.83;;
19024;SDS011;9645;51.448;6.260;2023-06-22T11:09:58;34.93;;;19.23;;
19024;SDS011;9645;51.448;6.260;2023-06-22T11:12:25;31.57;;;18.83;;
19024;SDS011;9645;51.448;6.260;2023-06-22T11:14:53;33.00;;;21.87;;
19024;SDS011;9645;51.448;6.260;2023-06-22T11:17:22;35.93;;;21.03;;
19024;SDS011;9645;51.448;6.260;2023-06-22T11:19:49;33.93;;;21.47;;
19024;SDS011;9645;51.448;6.260;2023-06-22T11:22:17;35.90;;;21.57;;
19024;SDS011;9645;51.448;6.260;2023-06-22T11:24:44;29.40;;;18.77;;
19024;SDS011;9645;51.448;6.260;2023-06-22T11:27:12;31.60;;;21.40;;
19024;SDS011;9645;51.448;6.260;2023-06-22T11:29:39;31.23;;;21.60;;
19024;SDS011;9645;51.448;6.260;2023-06-22T11:32:06;34.80;;;22.17;;
19024;SDS011;9645;51.448;6.260;2023-06-22T11:34:34;30.43;;;17.43;;
19024;SDS011;9645;51.448;6.260;2023-06-22T11:37:01;36.10;;;19.70;;
19024;SDS011;9645;51.448;6.260;2023-06-22T11:39:28;34.20;;;21.60;;
19024;SDS011;9645;51.448;6.260;2023-06-22T11:41:55;30.53;;;18.03;;
19024;SDS011;9645;51.448;6.260;2023-06-22T11:44:23;63.73;;;22.10;;
19024;SDS011;9645;51.448;6.260;2023-06-22T11:46:50;31.33;;;21.43;;
19024;SDS011;9645;51.448;6.260;2023-06-22T11:49:17;33.57;;;22.00;;
19024;SDS011;9645;51.448;6.260;2023-06-22T11:51:44;36.30;;;22.37;;
19024;SDS011;9645;51.448;6.260;2023-06-22T11:54:11;37.73;;;23.37;;
19024;SDS011;9645;51.448;6.260;2023-06-22T11:56:38;47.60;;;24.77;;
19024;SDS011;9645;51.448;6.260;2023-06-22T11:59:05;38.13;;;23.50;;
19024;SDS011;9645;51.448;6.260;2023-06-22T12:01:33;37.83;;;23.40;;
19024;SDS011;9645;51.448;6.260;2023-06-22T12:04:00;37.10;;;22.97;;
19024;SDS011;9645;51.448;6.260;2023-06-22T12:06:30;39.37;;;24.73;;
19024;SDS011;9645;51.448;6.260;2023-06-22T12:08:57;37.47;;;23.57;;
19024;SDS011;9645;51.448;6.260;2023-06-22T12:11:24;48.30;;;25.97;;
19024;SDS011;9645;51.448;6.260;2023-06-22T12:13:51;45.47;;;24.47;;
19024;SDS011;9645;51.448;6.260;2023-06-22T12:16:18;41.33;;;25.00;;
19024;SDS011;9645;51.448;6.260;2023-06-22T12:18:48;42.43;;;25.80;;
19024;SDS011;9645;51.448;6.260;2023-06-22T12:21:15;40.90;;;25.67;;
19024;SDS011;9645;51.448;6.260;2023-06-22T12:23:42;43.23;;;24.70;;
19024;SDS011;9645;51.448;6.260;2023-06-22T12:26:09;40.17;;;24.37;;
19024;SDS011;9645;51.448;6.260;2023-06-22T12:28:35;38.27;;;24.13;;
19024;SDS011;9645;51.448;6.260;2023-06-22T12:31:02;41.20;;;24.80;;
19024;SDS011;9645;51.448;6.260;2023-06-22T12:33:29;45.67;;;25.13;;
19024;SDS011;9645;51.448;6.260;2023-06-22T12:35:58;41.03;;;24.97;;
19024;SDS011;9645;51.448;6.260;2023-06-22T12:38:25;39.93;;;24.80;;
19024;SDS011;9645;51.448;6.260;2023-06-22T12:40:52;39.70;;;24.83;;
19024;SDS011;9645;51.448;6.260;2023-06-22T12:43:26;45.00;;;26.57;;
19024;SDS011;9645;51.448;6.260;2023-06-22T12:45:53;41.50;;;26.37;;
19024;SDS011;9645;51.448;6.260;2023-06-22T12:48:21;51.73;;;26.23;;
19024;SDS011;9645;51.448;6.260;2023-06-22T12:50:48;49.70;;;26.47;;
19024;SDS011;9645;51.448;6.260;2023-06-22T12:53:16;42.60;;;26.43;;
19024;SDS011;9645;51.448;6.260;2023-06-22T12:55:43;41.13;;;25.23;;
19024;SDS011;9645;51.448;6.260;2023-06-22T12:58:10;42.13;;;25.07;;
19024;SDS011;9645;51.448;6.260;2023-06-22T13:00:37;49.33;;;26.10;;
19024;SDS011;9645;51.448;6.260;2023-06-22T13:03:05;38.73;;;25.80;;
19024;SDS011;9645;51.448;6.260;2023-06-22T13:05:32;43.93;;;26.50;;
19024;SDS011;9645;51.448;6.260;2023-06-22T13:08:00;40.40;;;26.20;;
19024;SDS011;9645;51.448;6.260;2023-06-22T13:10:28;39.37;;;25.40;;
19024;SDS011;9645;51.448;6.260;2023-06-22T13:12:55;42.30;;;26.27;;
19024;SDS011;9645;51.448;6.260;2023-06-22T13:15:25;48.53;;;24.63;;
19024;SDS011;9645;51.448;6.260;2023-06-22T13:17:53;37.63;;;24.37;;
19024;SDS011;9645;51.448;6.260;2023-06-22T13:20:20;38.80;;;24.00;;
19024;SDS011;9645;51.448;6.260;2023-06-22T13:22:47;44.33;;;25.53;;
19024;SDS011;9645;51.448;6.260;2023-06-22T13:25:14;41.10;;;25.30;;
19024;SDS011;9645;51.448;6.260;2023-06-22T13:27:45;36.47;;;23.20;;
19024;SDS011;9645;51.448;6.260;2023-06-22T13:30:12;37.87;;;23.60;;
19024;SDS011;9645;51.448;6.260;2023-06-22T13:32:39;40.20;;;24.70;;
19024;SDS011;9645;51.448;6.260;2023-06-22T13:35:08;40.47;;;23.53;;
19024;SDS011;9645;51.448;6.260;2023-06-22T13:37:35;38.17;;;24.10;;
19024;SDS011;9645;51.448;6.260;2023-06-22T13:40:02;37.43;;;23.23;;
19024;SDS011;9645;51.448;6.260;2023-06-22T13:42:31;39.27;;;23.37;;
19024;SDS011;9645;51.448;6.260;2023-06-22T13:45:00;41.20;;;25.10;;
19024;SDS011;9645;51.448;6.260;2023-06-22T13:47:27;38.70;;;23.57;;
19024;SDS011;9645;51.448;6.260;2023-06-22T13:49:55;45.23;;;24.20;;
19024;SDS011;9645;51.448;6.260;2023-06-22T13:52:22;39.30;;;23.23;;
19024;SDS011;9645;51.448;6.260;2023-06-22T13:54:49;35.93;;;23.10;;
19024;SDS011;9645;51.448;6.260;2023-06-22T13:57:16;38.53;;;23.67;;
19024;SDS011;9645;51.448;6.260;2023-06-22T13:59:43;43.97;;;24.97;;
19024;SDS011;9645;51.448;6.260;2023-06-22T14:02:11;38.90;;;23.10;;
19024;SDS011;9645;51.448;6.260;2023-06-22T14:04:38;37.33;;;22.50;;
19024;SDS011;9645;51.448;6.260;2023-06-22T14:07:05;37.70;;;23.57;;
19024;SDS011;9645;51.448;6.260;2023-06-22T14:09:32;35.90;;;23.37;;
19024;SDS011;9645;51.448;6.260;2023-06-22T14:12:02;38.30;;;22.60;;
19024;SDS011;9645;51.448;6.260;2023-06-22T14:14:30;41.40;;;24.07;;
19024;SDS011;9645;51.448;6.260;2023-06-22T14:16:56;41.33;;;24.40;;
19024;SDS011;9645;51.448;6.260;2023-06-22T14:19:25;39.60;;;24.00;;
19024;SDS011;9645;51.448;6.260;2023-06-22T14:21:52;43.53;;;25.37;;
19024;SDS011;9645;51.448;6.260;2023-06-22T14:24:19;48.40;;;24.70;;
19024;SDS011;9645;51.448;6.260;2023-06-22T14:26:46;41.03;;;24.30;;
19024;SDS011;9645;51.448;6.260;2023-06-22T14:29:13;40.43;;;24.50;;
19024;SDS011;9645;51.448;6.260;2023-06-22T14:31:40;40.10;;;23.27;;
19024;SDS011;9645;51.448;6.260;2023-06-22T14:34:07;37.83;;;23.60;;
19024;SDS011;9645;51.448;6.260;2023-06-22T14:36:35;42.23;;;25.20;;
19024;SDS011;9645;51.448;6.260;2023-06-22T14:39:02;37.00;;;23.80;;